sensor_id;sensor_type;location;lat;lon;timestamp;P1;durP1;ratioP1;P2;durP2;ratioP2
18360;SDS011;9308;48.550;9.108;2023-04-07T00:01:27;11.63;;;10.43;;
18360;SDS011;9308;48.550;9.108;2023-04-07T00:03:53;11.60;;;10.20;;
18360;SDS011;9308;48.550;9.108;2023-04-07T00:06:18;12.27;;;11.00;;
18360;SDS011;9308;48.550;9.108;2023-04-07T00:08:43;12.00;;;10.80;;
18360;SDS011;9308;48.550;9.108;2023-04-07T00:11:09;12.07;;;10.50;;
18360;SDS011;9308;48.550;9.108;2023-04-07T00:13:35;12.37;;;11.10;;
18360;SDS011;9308;48.550;9.108;2023-04-07T00:16:00;11.73;;;10.53;;
18360;SDS011;9308;48.550;9.108;2023-04-07T00:18:26;11.00;;;10.00;;
18360;SDS011;9308;48.550;9.108;2023-04-07T00:20:51;11.80;;;10.60;;
18360;SDS011;9308;48.550;9.108;2023-04-07T00:23:16;11.37;;;10.27;;
18360;SDS011;9308;48.550;9.108;2023-04-07T00:25:42;11.70;;;10.50;;
18360;SDS011;9308;48.550;9.108;2023-04-07T00:28:07;11.73;;;10.50;;
18360;SDS011;9308;48.550;9.108;2023-04-07T00:30:33;11.80;;;10.30;;
18360;SDS011;9308;48.550;9.108;2023-04-07T00:32:58;12.60;;;11.37;;
18360;SDS011;9308;48.550;9.108;2023-04-07T00:35:23;12.80;;;11.03;;
18360;SDS011;9308;48.550;9.108;2023-04-07T00:37:49;10.27;;;9.33;;
18360;SDS011;9308;48.550;9.108;2023-04-07T00:40:14;11.83;;;10.60;;
18360;SDS011;9308;48.550;9.108;2023-04-07T00:42:41;11.30;;;10.20;;
18360;SDS011;9308;48.550;9.108;2023-04-07T00:45:07;11.77;;;10.43;;
18360;SDS011;9308;48.550;9.108;2023-04-07T00:47:34;11.40;;;10.30;;
18360;SDS011;9308;48.550;9.108;2023-04-07T00:49:59;11.30;;;10.17;;
18360;SDS011;9308;48.550;9.108;2023-04-07T00:52:25;12.00;;;10.40;;
18360;SDS011;9308;48.550;9.108;2023-04-07T00:54:53;12.43;;;9.97;;
18360;SDS011;9308;48.550;9.108;2023-04-07T00:57:19;11.47;;;9.90;;
18360;SDS011;9308;48.550;9.108;2023-04-07T00:59:45;11.63;;;10.47;;
18360;SDS011;9308;48.550;9.108;2023-04-07T01:02:15;12.03;;;10.73;;
18360;SDS011;9308;48.550;9.108;2023-04-07T01:05:00;11.67;;;10.47;;
18360;SDS011;9308;48.550;9.108;2023-04-07T01:07:40;11.03;;;9.93;;
18360;SDS011;9308;48.550;9.108;2023-04-07T01:10:40;12.23;;;11.03;;
18360;SDS011;9308;48.550;9.108;2023-04-07T01:15:48;15.20;;;11.53;;
18360;SDS011;9308;48.550;9.108;2023-04-07T01:18:20;11.53;;;10.33;;
18360;SDS011;9308;48.550;9.108;2023-04-07T01:20:49;12.17;;;10.97;;
18360;SDS011;9308;48.550;9.108;2023-04-07T01:23:27;12.40;;;11.10;;
18360;SDS011;9308;48.550;9.108;2023-04-07T01:26:19;12.07;;;10.97;;
18360;SDS011;9308;48.550;9.108;2023-04-07T01:31:55;12.80;;;10.73;;
18360;SDS011;9308;48.550;9.108;2023-04-07T01:34:24;12.40;;;11.20;;
18360;SDS011;9308;48.550;9.108;2023-04-07T01:36:51;12.87;;;11.03;;
18360;SDS011;9308;48.550;9.108;2023-04-07T01:39:18;12.47;;;11.17;;
18360;SDS011;9308;48.550;9.108;2023-04-07T01:41:44;12.93;;;11.60;;
18360;SDS011;9308;48.550;9.108;2023-04-07T01:44:10;12.40;;;10.90;;
18360;SDS011;9308;48.550;9.108;2023-04-07T01:46:37;13.30;;;11.23;;
18360;SDS011;9308;48.550;9.108;2023-04-07T01:49:02;12.10;;;10.90;;
18360;SDS011;9308;48.550;9.108;2023-04-07T01:51:29;13.70;;;12.30;;
18360;SDS011;9308;48.550;9.108;2023-04-07T01:53:56;12.07;;;10.87;;
18360;SDS011;9308;48.550;9.108;2023-04-07T01:56:23;12.40;;;11.20;;
18360;SDS011;9308;48.550;9.108;2023-04-07T01:58:48;13.47;;;12.07;;
18360;SDS011;9308;48.550;9.108;2023-04-07T02:01:14;12.30;;;10.60;;
18360;SDS011;9308;48.550;9.108;2023-04-07T02:03:48;11.50;;;10.30;;
18360;SDS011;9308;48.550;9.108;2023-04-07T02:06:33;11.50;;;10.40;;
18360;SDS011;9308;48.550;9.108;2023-04-07T02:09:04;12.70;;;11.50;;
18360;SDS011;9308;48.550;9.108;2023-04-07T02:11:32;11.50;;;10.40;;
18360;SDS011;9308;48.550;9.108;2023-04-07T02:14:00;10.90;;;9.80;;
18360;SDS011;9308;48.550;9.108;2023-04-07T02:16:31;11.80;;;10.70;;
18360;SDS011;9308;48.550;9.108;2023-04-07T02:18:57;12.53;;;11.30;;
18360;SDS011;9308;48.550;9.108;2023-04-07T02:21:24;12.37;;;11.17;;
18360;SDS011;9308;48.550;9.108;2023-04-07T02:23:51;11.77;;;10.67;;
18360;SDS011;9308;48.550;9.108;2023-04-07T02:26:17;10.93;;;10.00;;
18360;SDS011;9308;48.550;9.108;2023-04-07T02:28:42;11.80;;;9.87;;
18360;SDS011;9308;48.550;9.108;2023-04-07T02:31:07;12.60;;;11.20;;
18360;SDS011;9308;48.550;9.108;2023-04-07T02:33:33;12.20;;;11.00;;
18360;SDS011;9308;48.550;9.108;2023-04-07T02:35:58;12.00;;;10.80;;
18360;SDS011;9308;48.550;9.108;2023-04-07T02:38:24;11.60;;;10.60;;
18360;SDS011;9308;48.550;9.108;2023-04-07T02:40:50;11.13;;;10.03;;
18360;SDS011;9308;48.550;9.108;2023-04-07T02:43:16;11.80;;;10.60;;
18360;SDS011;9308;48.550;9.108;2023-04-07T02:45:43;13.07;;;11.77;;
18360;SDS011;9308;48.550;9.108;2023-04-07T02:48:08;12.30;;;11.10;;
18360;SDS011;9308;48.550;9.108;2023-04-07T02:50:34;11.67;;;10.47;;
18360;SDS011;9308;48.550;9.108;2023-04-07T02:52:59;12.17;;;10.87;;
18360;SDS011;9308;48.550;9.108;2023-04-07T02:55:24;11.07;;;9.97;;
18360;SDS011;9308;48.550;9.108;2023-04-07T02:57:50;12.07;;;10.87;;
18360;SDS011;9308;48.550;9.108;2023-04-07T03:00:16;11.93;;;10.73;;
18360;SDS011;9308;48.550;9.108;2023-04-07T03:02:41;12.40;;;11.10;;
18360;SDS011;9308;48.550;9.108;2023-04-07T03:05:07;12.57;;;11.13;;
18360;SDS011;9308;48.550;9.108;2023-04-07T03:07:32;12.10;;;10.80;;
18360;SDS011;9308;48.550;9.108;2023-04-07T03:09:58;11.20;;;10.10;;
18360;SDS011;9308;48.550;9.108;2023-04-07T03:12:23;11.03;;;9.93;;
18360;SDS011;9308;48.550;9.108;2023-04-07T03:14:48;11.97;;;10.80;;
18360;SDS011;9308;48.550;9.108;2023-04-07T03:17:14;13.17;;;11.80;;
18360;SDS011;9308;48.550;9.108;2023-04-07T03:19:40;11.47;;;10.40;;
18360;SDS011;9308;48.550;9.108;2023-04-07T03:22:05;12.60;;;11.30;;
18360;SDS011;9308;48.550;9.108;2023-04-07T03:24:31;12.20;;;11.00;;
18360;SDS011;9308;48.550;9.108;2023-04-07T03:26:56;12.13;;;10.83;;
18360;SDS011;9308;48.550;9.108;2023-04-07T03:29:22;12.17;;;10.80;;
18360;SDS011;9308;48.550;9.108;2023-04-07T03:31:47;12.70;;;11.40;;
18360;SDS011;9308;48.550;9.108;2023-04-07T03:34:13;14.30;;;11.00;;
18360;SDS011;9308;48.550;9.108;2023-04-07T03:36:39;11.80;;;10.67;;
18360;SDS011;9308;48.550;9.108;2023-04-07T03:39:04;13.93;;;12.03;;
18360;SDS011;9308;48.550;9.108;2023-04-07T03:41:30;13.23;;;11.83;;
18360;SDS011;9308;48.550;9.108;2023-04-07T03:43:56;11.93;;;10.73;;
18360;SDS011;9308;48.550;9.108;2023-04-07T03:46:22;11.60;;;10.50;;
18360;SDS011;9308;48.550;9.108;2023-04-07T03:48:47;12.77;;;11.47;;
18360;SDS011;9308;48.550;9.108;2023-04-07T03:51:13;13.20;;;11.43;;
18360;SDS011;9308;48.550;9.108;2023-04-07T03:53:38;12.37;;;11.07;;
18360;SDS011;9308;48.550;9.108;2023-04-07T03:56:04;11.43;;;10.33;;
18360;SDS011;9308;48.550;9.108;2023-04-07T03:58:29;12.33;;;11.10;;
18360;SDS011;9308;48.550;9.108;2023-04-07T04:00:55;11.77;;;10.67;;
18360;SDS011;9308;48.550;9.108;2023-04-07T04:03:20;14.07;;;10.90;;
18360;SDS011;9308;48.550;9.108;2023-04-07T04:05:46;12.17;;;10.80;;
18360;SDS011;9308;48.550;9.108;2023-04-07T04:08:11;11.70;;;10.20;;
18360;SDS011;9308;48.550;9.108;2023-04-07T04:10:37;11.37;;;10.20;;
18360;SDS011;9308;48.550;9.108;2023-04-07T04:13:02;11.13;;;10.00;;
18360;SDS011;9308;48.550;9.108;2023-04-07T04:15:30;13.37;;;11.60;;
18360;SDS011;9308;48.550;9.108;2023-04-07T04:17:56;15.20;;;13.70;;
18360;SDS011;9308;48.550;9.108;2023-04-07T04:20:22;13.20;;;11.90;;
18360;SDS011;9308;48.550;9.108;2023-04-07T04:22:47;12.47;;;11.37;;
18360;SDS011;9308;48.550;9.108;2023-04-07T04:25:12;11.70;;;10.50;;
18360;SDS011;9308;48.550;9.108;2023-04-07T04:27:38;11.40;;;10.20;;
18360;SDS011;9308;48.550;9.108;2023-04-07T04:30:04;10.23;;;9.23;;
18360;SDS011;9308;48.550;9.108;2023-04-07T04:32:30;11.43;;;10.30;;
18360;SDS011;9308;48.550;9.108;2023-04-07T04:34:56;11.97;;;10.67;;
18360;SDS011;9308;48.550;9.108;2023-04-07T04:37:22;12.60;;;11.40;;
18360;SDS011;9308;48.550;9.108;2023-04-07T04:39:47;12.20;;;10.60;;
18360;SDS011;9308;48.550;9.108;2023-04-07T04:42:12;11.33;;;10.23;;
18360;SDS011;9308;48.550;9.108;2023-04-07T04:44:38;11.77;;;10.57;;
18360;SDS011;9308;48.550;9.108;2023-04-07T04:47:03;11.40;;;10.40;;
18360;SDS011;9308;48.550;9.108;2023-04-07T04:49:29;12.53;;;10.73;;
18360;SDS011;9308;48.550;9.108;2023-04-07T04:51:54;10.80;;;9.80;;
18360;SDS011;9308;48.550;9.108;2023-04-07T04:54:19;12.23;;;10.93;;
18360;SDS011;9308;48.550;9.108;2023-04-07T04:56:45;12.10;;;10.90;;
18360;SDS011;9308;48.550;9.108;2023-04-07T04:59:10;12.70;;;11.47;;
18360;SDS011;9308;48.550;9.108;2023-04-07T05:01:35;14.10;;;12.67;;
18360;SDS011;9308;48.550;9.108;2023-04-07T05:04:01;15.00;;;12.10;;
18360;SDS011;9308;48.550;9.108;2023-04-07T05:06:26;13.23;;;11.73;;
18360;SDS011;9308;48.550;9.108;2023-04-07T05:08:52;14.23;;;12.77;;
18360;SDS011;9308;48.550;9.108;2023-04-07T05:11:18;12.50;;;11.33;;
18360;SDS011;9308;48.550;9.108;2023-04-07T05:13:43;13.83;;;12.50;;
18360;SDS011;9308;48.550;9.108;2023-04-07T05:16:09;12.40;;;11.10;;
18360;SDS011;9308;48.550;9.108;2023-04-07T05:18:35;13.10;;;11.60;;
18360;SDS011;9308;48.550;9.108;2023-04-07T05:21:00;12.40;;;11.10;;
18360;SDS011;9308;48.550;9.108;2023-04-07T05:23:26;12.83;;;11.50;;
18360;SDS011;9308;48.550;9.108;2023-04-07T05:25:51;11.07;;;10.00;;
18360;SDS011;9308;48.550;9.108;2023-04-07T05:28:17;12.93;;;11.33;;
18360;SDS011;9308;48.550;9.108;2023-04-07T05:30:43;12.30;;;11.20;;
18360;SDS011;9308;48.550;9.108;2023-04-07T05:33:08;12.53;;;11.40;;
18360;SDS011;9308;48.550;9.108;2023-04-07T05:35:34;12.67;;;11.47;;
18360;SDS011;9308;48.550;9.108;2023-04-07T05:38:00;15.37;;;14.00;;
18360;SDS011;9308;48.550;9.108;2023-04-07T05:40:25;12.37;;;11.27;;
18360;SDS011;9308;48.550;9.108;2023-04-07T05:42:51;13.63;;;12.33;;
18360;SDS011;9308;48.550;9.108;2023-04-07T05:45:16;15.23;;;11.40;;
18360;SDS011;9308;48.550;9.108;2023-04-07T05:47:41;14.20;;;12.07;;
18360;SDS011;9308;48.550;9.108;2023-04-07T05:50:07;14.43;;;11.87;;
18360;SDS011;9308;48.550;9.108;2023-04-07T05:52:33;13.07;;;11.77;;
18360;SDS011;9308;48.550;9.108;2023-04-07T05:54:58;14.20;;;11.53;;
18360;SDS011;9308;48.550;9.108;2023-04-07T05:57:24;13.37;;;12.07;;
18360;SDS011;9308;48.550;9.108;2023-04-07T05:59:51;12.50;;;11.20;;
18360;SDS011;9308;48.550;9.108;2023-04-07T06:02:16;12.70;;;11.50;;
18360;SDS011;9308;48.550;9.108;2023-04-07T06:04:42;13.20;;;11.80;;
18360;SDS011;9308;48.550;9.108;2023-04-07T06:07:07;14.93;;;13.43;;
18360;SDS011;9308;48.550;9.108;2023-04-07T06:09:33;14.23;;;12.70;;
18360;SDS011;9308;48.550;9.108;2023-04-07T06:11:58;14.73;;;13.33;;
18360;SDS011;9308;48.550;9.108;2023-04-07T06:14:25;14.97;;;13.60;;
18360;SDS011;9308;48.550;9.108;2023-04-07T06:16:50;14.60;;;13.10;;
18360;SDS011;9308;48.550;9.108;2023-04-07T06:19:16;14.37;;;12.87;;
18360;SDS011;9308;48.550;9.108;2023-04-07T06:21:41;15.10;;;13.50;;
18360;SDS011;9308;48.550;9.108;2023-04-07T06:24:07;13.80;;;12.40;;
18360;SDS011;9308;48.550;9.108;2023-04-07T06:26:32;13.00;;;11.70;;
18360;SDS011;9308;48.550;9.108;2023-04-07T06:28:58;15.30;;;13.70;;
18360;SDS011;9308;48.550;9.108;2023-04-07T06:31:24;14.27;;;12.77;;
18360;SDS011;9308;48.550;9.108;2023-04-07T06:33:50;17.40;;;15.33;;
18360;SDS011;9308;48.550;9.108;2023-04-07T06:36:15;28.63;;;25.73;;
18360;SDS011;9308;48.550;9.108;2023-04-07T06:38:41;25.10;;;22.50;;
18360;SDS011;9308;48.550;9.108;2023-04-07T06:41:07;15.77;;;14.20;;
18360;SDS011;9308;48.550;9.108;2023-04-07T06:43:36;15.50;;;14.00;;
18360;SDS011;9308;48.550;9.108;2023-04-07T06:46:01;15.13;;;13.73;;
18360;SDS011;9308;48.550;9.108;2023-04-07T06:48:27;14.33;;;12.93;;
18360;SDS011;9308;48.550;9.108;2023-04-07T06:50:53;14.30;;;12.83;;
18360;SDS011;9308;48.550;9.108;2023-04-07T06:53:18;13.23;;;11.90;;
18360;SDS011;9308;48.550;9.108;2023-04-07T06:55:43;13.40;;;12.00;;
18360;SDS011;9308;48.550;9.108;2023-04-07T06:58:09;12.97;;;11.77;;
18360;SDS011;9308;48.550;9.108;2023-04-07T07:00:34;13.50;;;12.20;;
18360;SDS011;9308;48.550;9.108;2023-04-07T07:03:00;12.17;;;10.90;;
18360;SDS011;9308;48.550;9.108;2023-04-07T07:05:26;13.30;;;11.97;;
18360;SDS011;9308;48.550;9.108;2023-04-07T07:07:51;11.80;;;10.70;;
18360;SDS011;9308;48.550;9.108;2023-04-07T07:10:17;14.10;;;12.70;;
18360;SDS011;9308;48.550;9.108;2023-04-07T07:12:44;14.13;;;12.60;;
18360;SDS011;9308;48.550;9.108;2023-04-07T07:15:10;22.03;;;19.00;;
18360;SDS011;9308;48.550;9.108;2023-04-07T07:17:35;16.93;;;15.33;;
18360;SDS011;9308;48.550;9.108;2023-04-07T07:20:00;16.53;;;14.93;;
18360;SDS011;9308;48.550;9.108;2023-04-07T07:22:26;14.17;;;12.70;;
18360;SDS011;9308;48.550;9.108;2023-04-07T07:24:51;21.23;;;19.33;;
18360;SDS011;9308;48.550;9.108;2023-04-07T07:27:17;17.90;;;15.37;;
18360;SDS011;9308;48.550;9.108;2023-04-07T07:29:42;15.23;;;13.67;;
18360;SDS011;9308;48.550;9.108;2023-04-07T07:32:08;13.40;;;12.07;;
18360;SDS011;9308;48.550;9.108;2023-04-07T07:34:33;12.93;;;11.73;;
18360;SDS011;9308;48.550;9.108;2023-04-07T07:36:58;15.10;;;13.50;;
18360;SDS011;9308;48.550;9.108;2023-04-07T07:39:25;16.43;;;14.67;;
18360;SDS011;9308;48.550;9.108;2023-04-07T07:41:51;13.93;;;12.47;;
18360;SDS011;9308;48.550;9.108;2023-04-07T07:44:16;14.00;;;12.50;;
18360;SDS011;9308;48.550;9.108;2023-04-07T07:46:44;17.53;;;15.83;;
18360;SDS011;9308;48.550;9.108;2023-04-07T07:49:09;19.50;;;17.43;;
18360;SDS011;9308;48.550;9.108;2023-04-07T07:51:35;26.97;;;24.60;;
18360;SDS011;9308;48.550;9.108;2023-04-07T07:54:01;15.30;;;13.80;;
18360;SDS011;9308;48.550;9.108;2023-04-07T07:56:26;14.73;;;13.23;;
18360;SDS011;9308;48.550;9.108;2023-04-07T07:58:51;35.07;;;22.73;;
18360;SDS011;9308;48.550;9.108;2023-04-07T08:01:17;13.03;;;11.80;;
18360;SDS011;9308;48.550;9.108;2023-04-07T08:03:42;13.70;;;11.00;;
18360;SDS011;9308;48.550;9.108;2023-04-07T08:06:08;23.13;;;20.70;;
18360;SDS011;9308;48.550;9.108;2023-04-07T08:08:33;17.50;;;15.57;;
18360;SDS011;9308;48.550;9.108;2023-04-07T08:10:59;16.20;;;14.60;;
18360;SDS011;9308;48.550;9.108;2023-04-07T08:13:25;34.47;;;27.40;;
18360;SDS011;9308;48.550;9.108;2023-04-07T08:15:50;33.30;;;24.80;;
18360;SDS011;9308;48.550;9.108;2023-04-07T08:18:16;12.47;;;10.60;;
18360;SDS011;9308;48.550;9.108;2023-04-07T08:20:41;11.17;;;10.17;;
18360;SDS011;9308;48.550;9.108;2023-04-07T08:23:07;11.07;;;10.07;;
18360;SDS011;9308;48.550;9.108;2023-04-07T08:25:33;10.77;;;9.70;;
18360;SDS011;9308;48.550;9.108;2023-04-07T08:27:59;11.33;;;10.23;;
18360;SDS011;9308;48.550;9.108;2023-04-07T08:30:24;10.47;;;9.47;;
18360;SDS011;9308;48.550;9.108;2023-04-07T08:32:50;10.67;;;9.60;;
18360;SDS011;9308;48.550;9.108;2023-04-07T08:35:15;12.63;;;11.23;;
18360;SDS011;9308;48.550;9.108;2023-04-07T08:37:41;10.47;;;9.60;;
18360;SDS011;9308;48.550;9.108;2023-04-07T08:40:08;10.13;;;9.23;;
18360;SDS011;9308;48.550;9.108;2023-04-07T08:42:34;8.97;;;8.17;;
18360;SDS011;9308;48.550;9.108;2023-04-07T08:45:05;9.00;;;8.10;;
18360;SDS011;9308;48.550;9.108;2023-04-07T08:47:32;11.00;;;9.80;;
18360;SDS011;9308;48.550;9.108;2023-04-07T08:50:05;7.53;;;6.73;;
18360;SDS011;9308;48.550;9.108;2023-04-07T08:52:53;9.90;;;7.80;;
18360;SDS011;9308;48.550;9.108;2023-04-07T08:55:19;8.67;;;7.87;;
18360;SDS011;9308;48.550;9.108;2023-04-07T08:57:45;8.17;;;7.40;;
18360;SDS011;9308;48.550;9.108;2023-04-07T09:00:11;8.00;;;7.20;;
18360;SDS011;9308;48.550;9.108;2023-04-07T09:02:41;7.63;;;7.00;;
18360;SDS011;9308;48.550;9.108;2023-04-07T09:05:09;9.80;;;7.63;;
18360;SDS011;9308;48.550;9.108;2023-04-07T09:07:35;8.50;;;7.70;;
18360;SDS011;9308;48.550;9.108;2023-04-07T09:10:02;8.23;;;7.40;;
18360;SDS011;9308;48.550;9.108;2023-04-07T09:12:28;9.60;;;7.40;;
18360;SDS011;9308;48.550;9.108;2023-04-07T09:14:54;8.10;;;7.30;;
18360;SDS011;9308;48.550;9.108;2023-04-07T09:17:20;10.93;;;7.90;;
18360;SDS011;9308;48.550;9.108;2023-04-07T09:19:47;7.07;;;6.47;;
18360;SDS011;9308;48.550;9.108;2023-04-07T09:22:12;7.10;;;6.40;;
18360;SDS011;9308;48.550;9.108;2023-04-07T09:24:39;7.50;;;6.90;;
18360;SDS011;9308;48.550;9.108;2023-04-07T09:27:15;6.87;;;6.37;;
18360;SDS011;9308;48.550;9.108;2023-04-07T09:29:43;7.40;;;6.67;;
18360;SDS011;9308;48.550;9.108;2023-04-07T09:32:10;7.70;;;7.10;;
18360;SDS011;9308;48.550;9.108;2023-04-07T09:34:38;7.93;;;6.90;;
18360;SDS011;9308;48.550;9.108;2023-04-07T09:37:05;7.37;;;6.73;;
18360;SDS011;9308;48.550;9.108;2023-04-07T09:39:33;7.80;;;7.10;;
18360;SDS011;9308;48.550;9.108;2023-04-07T09:42:13;7.07;;;6.27;;
18360;SDS011;9308;48.550;9.108;2023-04-07T09:44:39;6.90;;;6.20;;
18360;SDS011;9308;48.550;9.108;2023-04-07T09:47:07;7.20;;;6.50;;
18360;SDS011;9308;48.550;9.108;2023-04-07T09:49:34;7.00;;;6.33;;
18360;SDS011;9308;48.550;9.108;2023-04-07T09:52:14;6.23;;;5.57;;
18360;SDS011;9308;48.550;9.108;2023-04-07T09:54:41;6.20;;;5.70;;
18360;SDS011;9308;48.550;9.108;2023-04-07T09:57:07;5.57;;;5.17;;
18360;SDS011;9308;48.550;9.108;2023-04-07T09:59:34;5.70;;;5.20;;
18360;SDS011;9308;48.550;9.108;2023-04-07T10:02:01;5.93;;;5.33;;
18360;SDS011;9308;48.550;9.108;2023-04-07T10:04:27;5.80;;;5.23;;
18360;SDS011;9308;48.550;9.108;2023-04-07T10:06:55;5.90;;;5.30;;
18360;SDS011;9308;48.550;9.108;2023-04-07T10:09:24;5.90;;;5.30;;
18360;SDS011;9308;48.550;9.108;2023-04-07T10:11:51;6.47;;;5.07;;
18360;SDS011;9308;48.550;9.108;2023-04-07T10:14:18;5.87;;;5.10;;
18360;SDS011;9308;48.550;9.108;2023-04-07T10:16:46;5.30;;;4.90;;
18360;SDS011;9308;48.550;9.108;2023-04-07T10:19:12;5.50;;;5.00;;
18360;SDS011;9308;48.550;9.108;2023-04-07T10:21:39;5.17;;;4.40;;
18360;SDS011;9308;48.550;9.108;2023-04-07T10:26:43;6.00;;;4.80;;
18360;SDS011;9308;48.550;9.108;2023-04-07T10:29:14;4.77;;;4.37;;
18360;SDS011;9308;48.550;9.108;2023-04-07T10:31:42;5.17;;;4.67;;
18360;SDS011;9308;48.550;9.108;2023-04-07T10:34:08;4.90;;;4.40;;
18360;SDS011;9308;48.550;9.108;2023-04-07T10:36:33;5.13;;;4.73;;
18360;SDS011;9308;48.550;9.108;2023-04-07T10:41:34;4.77;;;4.33;;
18360;SDS011;9308;48.550;9.108;2023-04-07T10:44:06;4.43;;;4.03;;
18360;SDS011;9308;48.550;9.108;2023-04-07T10:49:20;4.23;;;3.70;;
18360;SDS011;9308;48.550;9.108;2023-04-07T10:54:36;5.13;;;4.63;;
18360;SDS011;9308;48.550;9.108;2023-04-07T10:59:30;4.67;;;4.23;;
18360;SDS011;9308;48.550;9.108;2023-04-07T11:04:37;3.90;;;3.60;;
18360;SDS011;9308;48.550;9.108;2023-04-07T11:07:03;3.67;;;3.37;;
18360;SDS011;9308;48.550;9.108;2023-04-07T11:09:28;4.70;;;3.93;;
18360;SDS011;9308;48.550;9.108;2023-04-07T11:11:54;4.63;;;4.20;;
18360;SDS011;9308;48.550;9.108;2023-04-07T11:14:26;7.97;;;4.67;;
18360;SDS011;9308;48.550;9.108;2023-04-07T11:16:56;5.63;;;4.73;;
18360;SDS011;9308;48.550;9.108;2023-04-07T11:19:22;4.67;;;4.30;;
18360;SDS011;9308;48.550;9.108;2023-04-07T11:21:48;4.00;;;3.70;;
18360;SDS011;9308;48.550;9.108;2023-04-07T11:24:32;4.20;;;3.80;;
18360;SDS011;9308;48.550;9.108;2023-04-07T11:26:58;3.80;;;3.50;;
18360;SDS011;9308;48.550;9.108;2023-04-07T11:29:27;3.43;;;3.17;;
18360;SDS011;9308;48.550;9.108;2023-04-07T11:31:54;4.87;;;3.63;;
18360;SDS011;9308;48.550;9.108;2023-04-07T11:34:27;4.53;;;4.13;;
18360;SDS011;9308;48.550;9.108;2023-04-07T11:36:55;3.93;;;3.53;;
18360;SDS011;9308;48.550;9.108;2023-04-07T11:39:24;3.80;;;3.50;;
18360;SDS011;9308;48.550;9.108;2023-04-07T11:41:57;4.90;;;3.90;;
18360;SDS011;9308;48.550;9.108;2023-04-07T11:44:23;4.40;;;4.00;;
18360;SDS011;9308;48.550;9.108;2023-04-07T11:46:54;3.60;;;3.30;;
18360;SDS011;9308;48.550;9.108;2023-04-07T11:49:21;3.53;;;3.23;;
18360;SDS011;9308;48.550;9.108;2023-04-07T11:52:02;3.23;;;2.90;;
18360;SDS011;9308;48.550;9.108;2023-04-07T11:54:43;4.00;;;3.60;;
18360;SDS011;9308;48.550;9.108;2023-04-07T11:57:24;3.37;;;3.10;;
18360;SDS011;9308;48.550;9.108;2023-04-07T12:00:09;5.50;;;3.97;;
18360;SDS011;9308;48.550;9.108;2023-04-07T12:02:36;4.43;;;4.03;;
18360;SDS011;9308;48.550;9.108;2023-04-07T12:05:02;4.90;;;4.20;;
18360;SDS011;9308;48.550;9.108;2023-04-07T12:07:30;3.77;;;3.37;;
18360;SDS011;9308;48.550;9.108;2023-04-07T12:09:56;4.80;;;4.00;;
18360;SDS011;9308;48.550;9.108;2023-04-07T12:12:25;5.47;;;4.30;;
18360;SDS011;9308;48.550;9.108;2023-04-07T12:14:52;4.17;;;3.73;;
18360;SDS011;9308;48.550;9.108;2023-04-07T12:17:21;4.27;;;3.87;;
18360;SDS011;9308;48.550;9.108;2023-04-07T12:19:47;3.63;;;3.33;;
18360;SDS011;9308;48.550;9.108;2023-04-07T12:22:13;3.60;;;3.30;;
18360;SDS011;9308;48.550;9.108;2023-04-07T12:24:38;3.87;;;3.53;;
18360;SDS011;9308;48.550;9.108;2023-04-07T12:27:03;3.80;;;3.50;;
18360;SDS011;9308;48.550;9.108;2023-04-07T12:29:29;3.67;;;3.47;;
18360;SDS011;9308;48.550;9.108;2023-04-07T12:31:55;5.43;;;3.13;;
18360;SDS011;9308;48.550;9.108;2023-04-07T12:34:20;3.40;;;3.20;;
18360;SDS011;9308;48.550;9.108;2023-04-07T12:36:46;3.20;;;3.00;;
18360;SDS011;9308;48.550;9.108;2023-04-07T12:39:12;3.60;;;2.90;;
18360;SDS011;9308;48.550;9.108;2023-04-07T12:41:38;2.47;;;2.27;;
18360;SDS011;9308;48.550;9.108;2023-04-07T12:44:04;2.83;;;2.63;;
18360;SDS011;9308;48.550;9.108;2023-04-07T12:46:30;2.77;;;2.53;;
18360;SDS011;9308;48.550;9.108;2023-04-07T12:48:55;2.30;;;2.13;;
18360;SDS011;9308;48.550;9.108;2023-04-07T12:51:21;2.73;;;2.50;;
18360;SDS011;9308;48.550;9.108;2023-04-07T12:53:46;5.03;;;4.53;;
18360;SDS011;9308;48.550;9.108;2023-04-07T12:56:12;5.00;;;4.50;;
18360;SDS011;9308;48.550;9.108;2023-04-07T12:58:38;8.33;;;5.33;;
18360;SDS011;9308;48.550;9.108;2023-04-07T13:01:04;3.90;;;3.30;;
18360;SDS011;9308;48.550;9.108;2023-04-07T13:03:30;3.40;;;2.37;;
18360;SDS011;9308;48.550;9.108;2023-04-07T13:05:55;2.53;;;2.30;;
18360;SDS011;9308;48.550;9.108;2023-04-07T13:08:25;3.13;;;2.83;;
18360;SDS011;9308;48.550;9.108;2023-04-07T13:10:53;2.10;;;1.90;;
18360;SDS011;9308;48.550;9.108;2023-04-07T13:13:20;2.00;;;1.90;;
18360;SDS011;9308;48.550;9.108;2023-04-07T13:15:46;1.80;;;1.70;;
18360;SDS011;9308;48.550;9.108;2023-04-07T13:18:11;2.10;;;2.00;;
18360;SDS011;9308;48.550;9.108;2023-04-07T13:20:36;1.70;;;1.60;;
18360;SDS011;9308;48.550;9.108;2023-04-07T13:23:02;1.80;;;1.70;;
18360;SDS011;9308;48.550;9.108;2023-04-07T13:25:28;2.13;;;1.70;;
18360;SDS011;9308;48.550;9.108;2023-04-07T13:27:53;2.90;;;1.70;;
18360;SDS011;9308;48.550;9.108;2023-04-07T13:30:19;2.17;;;1.97;;
18360;SDS011;9308;48.550;9.108;2023-04-07T13:32:44;5.20;;;2.43;;
18360;SDS011;9308;48.550;9.108;2023-04-07T13:35:15;4.40;;;2.33;;
18360;SDS011;9308;48.550;9.108;2023-04-07T13:37:41;3.27;;;2.97;;
18360;SDS011;9308;48.550;9.108;2023-04-07T13:40:06;2.90;;;2.17;;
18360;SDS011;9308;48.550;9.108;2023-04-07T13:42:32;2.17;;;1.93;;
18360;SDS011;9308;48.550;9.108;2023-04-07T13:44:58;3.30;;;2.10;;
18360;SDS011;9308;48.550;9.108;2023-04-07T13:47:23;3.43;;;2.23;;
18360;SDS011;9308;48.550;9.108;2023-04-07T13:49:49;2.13;;;1.83;;
18360;SDS011;9308;48.550;9.108;2023-04-07T13:52:16;2.00;;;1.90;;
18360;SDS011;9308;48.550;9.108;2023-04-07T13:54:42;2.17;;;2.07;;
18360;SDS011;9308;48.550;9.108;2023-04-07T13:57:08;3.60;;;3.40;;
18360;SDS011;9308;48.550;9.108;2023-04-07T13:59:33;6.67;;;4.20;;
18360;SDS011;9308;48.550;9.108;2023-04-07T14:01:59;5.90;;;5.40;;
18360;SDS011;9308;48.550;9.108;2023-04-07T14:04:25;3.10;;;2.30;;
18360;SDS011;9308;48.550;9.108;2023-04-07T14:06:51;2.33;;;2.13;;
18360;SDS011;9308;48.550;9.108;2023-04-07T14:09:17;3.10;;;2.80;;
18360;SDS011;9308;48.550;9.108;2023-04-07T14:11:42;3.00;;;2.80;;
18360;SDS011;9308;48.550;9.108;2023-04-07T14:14:08;3.23;;;2.23;;
18360;SDS011;9308;48.550;9.108;2023-04-07T14:16:33;3.50;;;3.20;;
18360;SDS011;9308;48.550;9.108;2023-04-07T14:18:59;3.37;;;3.07;;
18360;SDS011;9308;48.550;9.108;2023-04-07T14:21:24;3.80;;;3.43;;
18360;SDS011;9308;48.550;9.108;2023-04-07T14:23:52;3.60;;;3.40;;
18360;SDS011;9308;48.550;9.108;2023-04-07T14:26:17;8.50;;;6.93;;
18360;SDS011;9308;48.550;9.108;2023-04-07T14:28:43;5.53;;;4.83;;
18360;SDS011;9308;48.550;9.108;2023-04-07T14:31:12;5.40;;;4.50;;
18360;SDS011;9308;48.550;9.108;2023-04-07T14:33:40;3.67;;;3.23;;
18360;SDS011;9308;48.550;9.108;2023-04-07T14:36:08;6.97;;;6.37;;
18360;SDS011;9308;48.550;9.108;2023-04-07T14:38:34;4.60;;;4.20;;
18360;SDS011;9308;48.550;9.108;2023-04-07T14:40:59;4.80;;;4.40;;
18360;SDS011;9308;48.550;9.108;2023-04-07T14:43:26;4.53;;;3.90;;
18360;SDS011;9308;48.550;9.108;2023-04-07T14:45:52;3.93;;;3.60;;
18360;SDS011;9308;48.550;9.108;2023-04-07T14:48:17;4.47;;;3.57;;
18360;SDS011;9308;48.550;9.108;2023-04-07T14:50:43;4.63;;;4.07;;
18360;SDS011;9308;48.550;9.108;2023-04-07T14:53:09;4.90;;;4.40;;
18360;SDS011;9308;48.550;9.108;2023-04-07T14:55:35;4.20;;;3.90;;
18360;SDS011;9308;48.550;9.108;2023-04-07T14:58:01;3.63;;;3.33;;
18360;SDS011;9308;48.550;9.108;2023-04-07T15:00:26;4.57;;;3.00;;
18360;SDS011;9308;48.550;9.108;2023-04-07T15:02:53;3.10;;;2.70;;
18360;SDS011;9308;48.550;9.108;2023-04-07T15:05:19;4.47;;;3.50;;